createdAt,value
2024-03-04T00:01:45.950Z,6.34
2024-03-04T00:06:49.977Z,6.39
2024-03-04T00:11:54.134Z,6.36
2024-03-04T00:16:58.313Z,6.41
2024-03-04T00:22:02.559Z,6.41
2024-03-04T00:27:06.601Z,6.43
2024-03-04T00:32:10.783Z,6.42
2024-03-04T00:37:15.032Z,6.43
2024-03-04T00:42:19.081Z,6.49
2024-03-04T00:47:23.290Z,6.51
2024-03-04T00:52:27.490Z,6.60
2024-03-04T00:57:31.593Z,6.73
2024-03-04T01:02:35.783Z,6.86
2024-03-04T01:07:39.962Z,7.01
2024-03-04T01:12:44.087Z,7.12
2024-03-04T01:17:48.251Z,7.21
2024-03-04T01:22:52.392Z,7.29
2024-03-04T01:27:56.561Z,7.37
2024-03-04T01:33:00.859Z,7.43
2024-03-04T01:38:04.903Z,7.48
2024-03-04T01:43:09.065Z,7.56
2024-03-04T01:48:13.241Z,7.60
2024-03-04T01:53:17.384Z,7.65
2024-03-04T01:58:21.625Z,7.65
2024-03-04T02:03:25.716Z,7.67
2024-03-04T02:08:29.862Z,7.69
2024-03-04T02:13:34.135Z,7.67
2024-03-04T02:18:38.170Z,7.66
2024-03-04T02:23:42.338Z,7.68
2024-03-04T02:28:46.609Z,7.69
2024-03-04T02:33:50.690Z,7.66
2024-03-04T02:38:54.834Z,7.64
2024-03-04T02:43:59.023Z,7.63
2024-03-04T02:49:03.237Z,7.60
2024-03-04T02:54:07.333Z,7.61
2024-03-04T02:59:11.487Z,7.58
2024-03-04T03:04:15.719Z,7.56
2024-03-04T03:09:19.788Z,7.58
2024-03-04T03:14:23.958Z,7.57
2024-03-04T03:19:28.197Z,7.60
2024-03-04T03:24:32.312Z,7.57
2024-03-04T03:29:36.474Z,7.58
2024-03-04T03:34:40.692Z,7.59
2024-03-04T03:39:44.777Z,7.58
2024-03-04T03:44:48.993Z,7.58
2024-03-04T03:49:53.089Z,7.56
2024-03-04T03:54:57.289Z,7.56
2024-03-04T04:00:01.454Z,7.56
2024-03-04T04:05:03.755Z,7.54
2024-03-04T04:10:07.882Z,7.53
2024-03-04T04:15:12.037Z,7.51
2024-03-04T04:20:16.229Z,7.51
2024-03-04T04:25:20.373Z,7.52
2024-03-04T04:30:24.553Z,7.50
2024-03-04T04:35:26.805Z,7.50
2024-03-04T04:40:31.033Z,7.47
2024-03-04T04:45:35.111Z,7.47
2024-03-04T04:50:39.280Z,7.41
2024-03-04T04:55:43.490Z,7.41
2024-03-04T05:00:47.637Z,7.38
2024-03-04T05:05:51.789Z,7.35
2024-03-04T05:10:55.990Z,7.34
2024-03-04T05:16:00.098Z,7.35
2024-03-04T05:21:04.254Z,7.33
2024-03-04T05:26:08.383Z,7.32
2024-03-04T05:31:12.644Z,7.29
2024-03-04T05:36:16.756Z,7.30
2024-03-04T05:41:20.938Z,7.26
2024-03-04T05:46:25.141Z,7.25
2024-03-04T05:51:29.209Z,7.23
2024-03-04T05:56:33.405Z,7.22
2024-03-04T06:01:37.648Z,7.21
2024-03-04T06:06:41.732Z,7.17
2024-03-04T06:11:45.881Z,7.13
2024-03-04T06:16:50.044Z,7.11
2024-03-04T06:22:04.817Z,7.10
2024-03-04T06:26:58.379Z,7.10
2024-03-04T06:32:02.540Z,7.08
2024-03-04T06:37:06.701Z,7.07
2024-03-04T06:42:10.853Z,7.08
2024-03-04T06:47:15.020Z,7.08
2024-03-04T06:52:19.216Z,7.09
2024-03-04T06:57:23.334Z,7.11
2024-03-04T07:02:27.498Z,7.12
2024-03-04T07:07:31.687Z,7.15
2024-03-04T07:12:35.853Z,7.17
2024-03-04T07:17:40.002Z,7.19
2024-03-04T07:22:44.217Z,7.21
2024-03-04T07:27:48.332Z,7.22
2024-03-04T07:32:52.535Z,7.23
2024-03-04T07:37:56.634Z,7.24
2024-03-04T07:43:00.831Z,7.24
2024-03-04T07:48:05.037Z,7.26
2024-03-04T07:53:09.117Z,7.25
2024-03-04T07:58:13.359Z,7.26
2024-03-04T08:03:17.454Z,7.27
2024-03-04T08:08:23.207Z,7.28
2024-03-04T08:13:25.788Z,7.29
2024-03-04T08:18:29.968Z,7.31
2024-03-04T08:23:34.140Z,7.35
2024-03-04T08:28:38.287Z,7.40
2024-03-04T08:33:42.404Z,7.43
2024-03-04T08:38:46.572Z,7.46
2024-03-04T08:43:50.795Z,7.49
2024-03-04T08:48:54.920Z,7.57
2024-03-04T08:53:59.133Z,7.65
2024-03-04T08:59:03.299Z,7.67
2024-03-04T09:04:07.451Z,7.69
2024-03-04T09:09:11.610Z,7.68
2024-03-04T09:14:15.709Z,7.67
2024-03-04T09:19:19.959Z,7.66
2024-03-04T09:24:24.158Z,7.69
2024-03-04T09:29:28.243Z,7.74
2024-03-04T09:34:32.422Z,7.80
2024-03-04T09:39:36.549Z,7.81
2024-03-04T09:44:40.734Z,7.79
2024-03-04T09:49:44.937Z,7.78
2024-03-04T09:54:49.048Z,7.78
2024-03-04T09:59:53.203Z,7.79
2024-03-04T10:04:55.567Z,7.85
2024-03-04T10:09:59.639Z,7.90
2024-03-04T10:15:03.984Z,7.91
2024-03-04T10:20:07.956Z,7.96
2024-03-04T10:25:12.261Z,8.01
2024-03-04T10:30:16.304Z,8.02
2024-03-04T10:35:20.440Z,7.99
2024-03-04T10:40:24.712Z,7.93
2024-03-04T10:45:28.732Z,7.86
2024-03-04T10:50:32.932Z,7.81
2024-03-04T10:55:37.188Z,7.82
2024-03-04T11:00:41.289Z,7.76
2024-03-04T11:05:45.465Z,7.74
2024-03-04T11:10:49.685Z,7.71
2024-03-04T11:15:53.754Z,7.74
2024-03-04T11:20:57.926Z,7.72
2024-03-04T11:26:02.058Z,7.74
2024-03-04T11:31:06.379Z,7.74
2024-03-04T11:36:10.419Z,7.74
2024-03-04T11:41:14.562Z,7.76
2024-03-04T11:46:18.780Z,7.72
2024-03-04T11:51:22.898Z,7.73
2024-03-04T11:56:27.043Z,7.70
2024-03-04T12:01:31.308Z,7.68
2024-03-04T12:06:35.387Z,7.68
2024-03-04T12:11:39.614Z,7.65
2024-03-04T12:16:43.769Z,7.69
2024-03-04T12:21:47.842Z,7.67
2024-03-04T12:26:52.011Z,7.67
2024-03-04T12:31:56.177Z,7.71
2024-03-04T12:37:00.359Z,7.62
2024-03-04T12:42:04.469Z,7.62
2024-03-04T12:47:08.654Z,7.60
2024-03-04T12:52:12.855Z,7.61
2024-03-04T12:57:17.000Z,7.66
2024-03-04T13:02:21.162Z,7.71
2024-03-04T13:07:25.373Z,7.67
2024-03-04T13:12:29.464Z,7.70
2024-03-04T13:17:33.634Z,7.62
2024-03-04T13:22:37.885Z,7.59
2024-03-04T13:27:41.931Z,7.60
2024-03-04T13:32:46.328Z,7.58
2024-03-04T13:37:50.364Z,7.65
2024-03-04T13:42:57.044Z,7.77
2024-03-04T13:47:58.654Z,7.83
2024-03-04T13:53:02.790Z,7.89
2024-03-04T13:58:06.931Z,7.92
2024-03-04T14:03:11.120Z,7.94
2024-03-04T14:08:15.272Z,8.02
2024-03-04T14:13:19.460Z,8.06
2024-03-04T14:18:23.648Z,8.06
2024-03-04T14:23:31.013Z,8.12
2024-03-04T14:28:31.946Z,8.20
2024-03-04T14:33:36.157Z,8.21
2024-03-04T14:38:40.256Z,8.21
2024-03-04T14:43:44.456Z,8.25
2024-03-04T14:48:48.571Z,8.31
2024-03-04T14:53:52.710Z,8.34
2024-03-04T14:58:56.871Z,8.30
2024-03-04T15:04:01.057Z,8.24
2024-03-04T15:09:05.249Z,8.26
2024-03-04T15:14:09.371Z,8.23
2024-03-04T15:19:13.635Z,8.21
2024-03-04T15:24:17.699Z,8.15
2024-03-04T15:29:21.830Z,8.12
2024-03-04T15:34:24.119Z,8.14
2024-03-04T15:39:28.329Z,8.13
2024-03-04T15:44:32.431Z,8.16
2024-03-04T15:49:36.670Z,8.09
2024-03-04T15:54:40.812Z,8.07
2024-03-04T15:59:44.894Z,8.09
2024-03-04T16:04:49.167Z,8.08
2024-03-04T16:09:53.229Z,8.05
2024-03-04T16:14:57.421Z,8.06
2024-03-04T16:20:01.558Z,8.07
2024-03-04T16:25:05.783Z,8.05
2024-03-04T16:30:09.977Z,8.04
2024-03-04T16:35:14.078Z,8.03
2024-03-04T16:40:18.376Z,7.99
2024-03-04T16:45:22.386Z,7.95
2024-03-04T16:50:26.630Z,7.93
2024-03-04T16:55:34.435Z,7.92
2024-03-04T17:00:34.885Z,7.89
2024-03-04T17:05:39.054Z,7.85
2024-03-04T17:10:43.278Z,7.83
2024-03-04T17:15:47.413Z,7.78
2024-03-04T17:20:51.538Z,7.76
2024-03-04T17:25:55.798Z,7.73
2024-03-04T17:30:59.867Z,7.72
2024-03-04T17:36:04.041Z,7.71
2024-03-04T17:41:08.184Z,7.68
2024-03-04T17:46:12.339Z,7.68
2024-03-04T17:51:16.491Z,7.68
2024-03-04T17:56:20.697Z,7.65
2024-03-04T18:01:24.870Z,7.63
2024-03-04T18:06:29.024Z,7.61
2024-03-04T18:11:33.238Z,7.59
2024-03-04T18:16:37.378Z,7.55
2024-03-04T18:21:41.477Z,7.53
2024-03-04T18:26:45.676Z,7.55
2024-03-04T18:31:49.888Z,7.49
2024-03-04T18:36:53.987Z,7.48
2024-03-04T18:41:58.134Z,7.46
2024-03-04T18:47:02.355Z,7.43
2024-03-04T18:52:06.536Z,7.42
2024-03-04T18:57:10.626Z,7.42
2024-03-04T19:02:15.290Z,7.41
2024-03-04T19:07:19.019Z,7.40
2024-03-04T19:12:23.200Z,7.39
2024-03-04T19:17:27.284Z,7.37
2024-03-04T19:22:31.494Z,7.38
2024-03-04T19:27:35.646Z,7.37
2024-03-04T19:32:40.018Z,7.38
2024-03-04T19:37:44.034Z,7.37
2024-03-04T19:42:48.073Z,7.38
2024-03-04T19:47:52.318Z,7.37
2024-03-04T19:52:56.396Z,7.37
2024-03-04T19:58:00.581Z,7.37
2024-03-04T20:03:04.753Z,7.36
2024-03-04T20:08:08.974Z,7.35
2024-03-04T20:13:13.476Z,7.36
2024-03-04T20:18:17.276Z,7.35
2024-03-04T20:23:21.385Z,7.35
2024-03-04T20:28:26.352Z,7.34
2024-03-04T20:33:29.721Z,7.36
2024-03-04T20:38:33.901Z,7.36
2024-03-04T20:43:38.153Z,7.35
2024-03-04T20:48:42.193Z,7.35
2024-03-04T20:53:46.335Z,7.33
2024-03-04T20:58:50.557Z,7.31
2024-03-04T21:03:52.756Z,7.31
2024-03-04T21:08:56.963Z,7.29
2024-03-04T21:14:01.384Z,7.28
2024-03-04T21:19:05.307Z,7.29
2024-03-04T21:24:09.444Z,7.27
2024-03-04T21:29:13.596Z,7.27
2024-03-04T21:34:15.902Z,7.26
2024-03-04T21:39:20.047Z,7.26
2024-03-04T21:44:24.196Z,7.25
2024-03-04T21:49:28.360Z,7.25
2024-03-04T21:54:32.527Z,7.25
2024-03-04T21:59:36.671Z,7.21
2024-03-04T22:04:40.882Z,7.16
2024-03-04T22:09:45.007Z,7.14
2024-03-04T22:14:49.167Z,7.10
2024-03-04T22:19:53.345Z,7.06
2024-03-04T22:24:57.464Z,7.05
2024-03-04T22:30:01.655Z,7.04
2024-03-04T22:35:05.805Z,7.06
2024-03-04T22:40:10.139Z,7.09
2024-03-04T22:45:14.197Z,7.09
2024-03-04T22:50:18.317Z,7.09
2024-03-04T22:55:22.485Z,7.07
2024-03-04T23:00:26.663Z,7.07
2024-03-04T23:05:30.783Z,7.05
2024-03-04T23:10:34.978Z,7.04
2024-03-04T23:15:39.123Z,7.02
2024-03-04T23:20:43.288Z,7.00
2024-03-04T23:25:47.502Z,6.99
2024-03-04T23:30:51.630Z,6.97
2024-03-04T23:35:55.993Z,6.94
2024-03-04T23:40:59.940Z,6.88
2024-03-04T23:46:04.099Z,6.82
2024-03-04T23:51:08.270Z,6.70
2024-03-04T23:56:12.416Z,6.48
